Pays
Station

 

Conditions  météo  pour  Hill Air Force Base/Ogden  -  Etats-Unis    Etats-Unis

  
4 °C
    
 
 

METAR pour Hill Air Force Base/Ogden :

KHIF 191058Z AUTO 00000KT 10SM OVC049 04/M01 A3018 RMK AO2 RAB01E11 SLP215 P0000 T00431015

 

Voici le bulletin pour Hill Air Force Base/Ogden - Etats-Unis.
 
Le bulletin a été fait il y a 29 minutes, à 10:58 UTC .
Le vent était calme.
 
La température était de 4 °C, avec un point de rosée à -1 °C.
La pression atmosphérique était de 1022 hPa.
L'humidité relative était de 69.8%.
 
Le ciel était nuageux à partir d'une hauteur de 1494 mètres
 
La visibilité globale était de 16.1 kilomètres.
 

 
 
 

Pays :   A   B   C   D   E   F   G   H   I   J   K   L   M   N   O   P   Q   R   S   T   U   V   W   Y   Z

 

Partenaires :  Info Météo avec Met'info
Météo Marine avec MeteoMarine.net
Infos Site  |  Infos Légales  |  Crédits  |  Confidentialité
Contactez-nous  |  Ajouter aux favoris
© 2013-2018 METAR - Tous droits réservés